sensor_id;sensor_type;location;lat;lon;timestamp;pressure;altitude;pressure_sealevel;temperature;humidity
37972;BME280;23794;48.234;8.344;2024-02-16T00:01:00;94134.03;;;6.96;79.71
37972;BME280;23794;48.234;8.344;2024-02-16T00:03:27;94132.03;;;6.92;80.04
37972;BME280;23794;48.234;8.344;2024-02-16T00:05:55;94136.75;;;6.96;79.19
37972;BME280;23794;48.234;8.344;2024-02-16T00:08:21;94127.78;;;6.99;78.85
37972;BME280;23794;48.234;8.344;2024-02-16T00:10:48;94129.69;;;6.91;79.53
37972;BME280;23794;48.234;8.344;2024-02-16T00:13:15;94127.41;;;6.97;79.46
37972;BME280;23794;48.234;8.344;2024-02-16T00:15:42;94127.03;;;7.02;78.80
37972;BME280;23794;48.234;8.344;2024-02-16T00:18:08;94124.72;;;7.04;77.71
37972;BME280;23794;48.234;8.344;2024-02-16T00:20:35;94128.97;;;7.01;78.15
37972;BME280;23794;48.234;8.344;2024-02-16T00:23:02;94124.72;;;7.04;78.05
37972;BME280;23794;48.234;8.344;2024-02-16T00:25:29;94124.69;;;6.97;78.71
37972;BME280;23794;48.234;8.344;2024-02-16T00:27:56;94128.91;;;6.90;78.73
37972;BME280;23794;48.234;8.344;2024-02-16T00:30:22;94135.16;;;6.91;78.84
37972;BME280;23794;48.234;8.344;2024-02-16T00:32:49;94128.56;;;6.96;78.27
37972;BME280;23794;48.234;8.344;2024-02-16T00:35:16;94124.28;;;6.95;78.79
37972;BME280;23794;48.234;8.344;2024-02-16T00:37:45;94127.38;;;6.93;79.07
37972;BME280;23794;48.234;8.344;2024-02-16T00:40:12;94126.19;;;6.94;78.11
37972;BME280;23794;48.234;8.344;2024-02-16T00:42:39;94125.84;;;6.96;78.54
37972;BME280;23794;48.234;8.344;2024-02-16T00:45:06;94131.69;;;6.98;78.46
37972;BME280;23794;48.234;8.344;2024-02-16T00:47:33;94125.47;;;6.97;78.41
37972;BME280;23794;48.234;8.344;2024-02-16T00:50:00;94132.91;;;7.04;78.42
37972;BME280;23794;48.234;8.344;2024-02-16T00:52:27;94124.66;;;6.93;78.95
37972;BME280;23794;48.234;8.344;2024-02-16T00:54:54;94121.16;;;6.92;78.89
37972;BME280;23794;48.234;8.344;2024-02-16T00:57:20;94127.34;;;6.89;79.71
37972;BME280;23794;48.234;8.344;2024-02-16T00:59:47;94133.59;;;6.90;79.35
37972;BME280;23794;48.234;8.344;2024-02-16T01:02:14;94136.69;;;6.88;79.51
37972;BME280;23794;48.234;8.344;2024-02-16T01:04:43;94135.19;;;6.98;78.16
37972;BME280;23794;48.234;8.344;2024-02-16T01:07:10;94135.66;;;7.07;77.82
37972;BME280;23794;48.234;8.344;2024-02-16T01:09:36;94132.16;;;7.14;78.24
37972;BME280;23794;48.234;8.344;2024-02-16T01:12:03;94136.88;;;7.17;77.60
37972;BME280;23794;48.234;8.344;2024-02-16T01:14:30;94130.59;;;7.13;77.94
37972;BME280;23794;48.234;8.344;2024-02-16T01:16:57;94131.00;;;7.12;78.17
37972;BME280;23794;48.234;8.344;2024-02-16T01:19:23;94128.94;;;6.98;78.61
37972;BME280;23794;48.234;8.344;2024-02-16T01:21:50;94129.41;;;7.07;78.38
37972;BME280;23794;48.234;8.344;2024-02-16T01:24:19;94131.34;;;7.03;78.31
37972;BME280;23794;48.234;8.344;2024-02-16T01:26:48;94131.34;;;7.06;77.62
37972;BME280;23794;48.234;8.344;2024-02-16T01:29:15;94121.22;;;7.03;77.47
37972;BME280;23794;48.234;8.344;2024-02-16T01:31:41;94127.38;;;6.93;78.49
37972;BME280;23794;48.234;8.344;2024-02-16T01:34:08;94132.41;;;6.87;78.04
37972;BME280;23794;48.234;8.344;2024-02-16T01:36:35;94123.06;;;6.85;77.59
37972;BME280;23794;48.234;8.344;2024-02-16T01:39:01;94123.75;;;6.74;77.82
37972;BME280;23794;48.234;8.344;2024-02-16T01:41:28;94126.78;;;6.62;78.44
37972;BME280;23794;48.234;8.344;2024-02-16T01:43:55;94125.53;;;6.56;78.36
37972;BME280;23794;48.234;8.344;2024-02-16T01:46:22;94122.47;;;6.57;78.17
37972;BME280;23794;48.234;8.344;2024-02-16T01:48:49;94127.88;;;6.54;78.02
37972;BME280;23794;48.234;8.344;2024-02-16T01:51:17;94124.69;;;6.44;77.97
37972;BME280;23794;48.234;8.344;2024-02-16T01:53:44;94122.72;;;6.41;78.30
37972;BME280;23794;48.234;8.344;2024-02-16T01:56:12;94130.81;;;6.34;79.01
37972;BME280;23794;48.234;8.344;2024-02-16T01:58:39;94128.44;;;6.29;79.15
37972;BME280;23794;48.234;8.344;2024-02-16T02:01:06;94131.03;;;6.14;79.67
37972;BME280;23794;48.234;8.344;2024-02-16T02:03:33;94128.72;;;6.17;78.86
37972;BME280;23794;48.234;8.344;2024-02-16T02:06:01;94126.81;;;6.21;78.81
37972;BME280;23794;48.234;8.344;2024-02-16T02:08:28;94126.03;;;6.20;79.19
37972;BME280;23794;48.234;8.344;2024-02-16T02:10:55;94126.44;;;6.22;78.56
37972;BME280;23794;48.234;8.344;2024-02-16T02:13:22;94119.50;;;6.28;78.24
37972;BME280;23794;48.234;8.344;2024-02-16T02:15:49;94126.53;;;6.33;78.05
37972;BME280;23794;48.234;8.344;2024-02-16T02:18:16;94121.50;;;6.35;78.31
37972;BME280;23794;48.234;8.344;2024-02-16T02:20:43;94124.19;;;6.32;78.19
37972;BME280;23794;48.234;8.344;2024-02-16T02:23:10;94124.25;;;6.39;78.46
37972;BME280;23794;48.234;8.344;2024-02-16T02:25:36;94112.19;;;6.36;78.31
37972;BME280;23794;48.234;8.344;2024-02-16T02:28:03;94120.78;;;6.42;78.43
37972;BME280;23794;48.234;8.344;2024-02-16T02:30:30;94125.03;;;6.39;79.31
37972;BME280;23794;48.234;8.344;2024-02-16T02:32:57;94124.31;;;6.46;78.36
37972;BME280;23794;48.234;8.344;2024-02-16T02:35:24;94121.16;;;6.40;78.15
37972;BME280;23794;48.234;8.344;2024-02-16T02:37:51;94122.75;;;6.45;78.17
37972;BME280;23794;48.234;8.344;2024-02-16T02:40:17;94123.06;;;6.36;77.67
37972;BME280;23794;48.234;8.344;2024-02-16T02:42:44;94114.09;;;6.32;78.73
37972;BME280;23794;48.234;8.344;2024-02-16T02:45:11;94109.78;;;6.27;78.98
37972;BME280;23794;48.234;8.344;2024-02-16T02:47:38;94107.47;;;6.33;78.97
37972;BME280;23794;48.234;8.344;2024-02-16T02:50:05;94109.44;;;6.33;79.30
37972;BME280;23794;48.234;8.344;2024-02-16T02:52:32;94114.06;;;6.28;79.58
37972;BME280;23794;48.234;8.344;2024-02-16T02:54:59;94100.50;;;6.32;78.92
37972;BME280;23794;48.234;8.344;2024-02-16T02:57:26;94092.44;;;6.43;78.33
37972;BME280;23794;48.234;8.344;2024-02-16T02:59:52;94100.88;;;6.34;79.29
37972;BME280;23794;48.234;8.344;2024-02-16T03:02:19;94107.47;;;6.33;79.25
37972;BME280;23794;48.234;8.344;2024-02-16T03:04:46;94103.63;;;6.38;78.85
37972;BME280;23794;48.234;8.344;2024-02-16T03:07:13;94096.31;;;6.42;78.07
37972;BME280;23794;48.234;8.344;2024-02-16T03:09:41;94095.09;;;6.36;79.15
37972;BME280;23794;48.234;8.344;2024-02-16T03:12:09;94096.66;;;6.40;78.57
37972;BME280;23794;48.234;8.344;2024-02-16T03:14:37;94095.91;;;6.43;78.35
37972;BME280;23794;48.234;8.344;2024-02-16T03:17:05;94106.72;;;6.33;78.95
37972;BME280;23794;48.234;8.344;2024-02-16T03:19:32;94100.53;;;6.36;79.03
37972;BME280;23794;48.234;8.344;2024-02-16T03:21:59;94104.00;;;6.33;79.30
37972;BME280;23794;48.234;8.344;2024-02-16T03:24:25;94102.06;;;6.37;79.13
37972;BME280;23794;48.234;8.344;2024-02-16T03:26:52;94100.59;;;6.43;78.88
37972;BME280;23794;48.234;8.344;2024-02-16T03:29:19;94094.38;;;6.46;78.41
37972;BME280;23794;48.234;8.344;2024-02-16T03:31:46;94102.50;;;6.42;79.06
37972;BME280;23794;48.234;8.344;2024-02-16T03:34:12;94097.50;;;6.48;78.68
37972;BME280;23794;48.234;8.344;2024-02-16T03:36:39;94101.00;;;6.49;78.35
37972;BME280;23794;48.234;8.344;2024-02-16T03:39:06;94098.63;;;6.43;78.72
37972;BME280;23794;48.234;8.344;2024-02-16T03:41:35;94100.59;;;6.43;78.61
37972;BME280;23794;48.234;8.344;2024-02-16T03:44:02;94104.50;;;6.45;78.45
37972;BME280;23794;48.234;8.344;2024-02-16T03:46:29;94098.66;;;6.47;78.85
37972;BME280;23794;48.234;8.344;2024-02-16T03:48:56;94111.50;;;6.47;78.68
37972;BME280;23794;48.234;8.344;2024-02-16T03:51:23;94104.91;;;6.48;78.21
37972;BME280;23794;48.234;8.344;2024-02-16T03:53:50;94099.78;;;6.42;78.60
37972;BME280;23794;48.234;8.344;2024-02-16T03:56:20;94105.56;;;6.34;78.95
37972;BME280;23794;48.234;8.344;2024-02-16T03:58:47;94103.53;;;6.27;79.04
37972;BME280;23794;48.234;8.344;2024-02-16T04:01:14;94103.56;;;6.30;79.32
37972;BME280;23794;48.234;8.344;2024-02-16T04:03:41;94098.16;;;6.34;80.12
37972;BME280;23794;48.234;8.344;2024-02-16T04:06:08;94106.75;;;6.36;79.92
37972;BME280;23794;48.234;8.344;2024-02-16T04:08:34;94112.56;;;6.35;79.46
37972;BME280;23794;48.234;8.344;2024-02-16T04:11:01;94114.81;;;6.25;79.63
37972;BME280;23794;48.234;8.344;2024-02-16T04:13:29;94111.28;;;6.21;79.29
37972;BME280;23794;48.234;8.344;2024-02-16T04:15:56;94112.75;;;6.15;79.85
37972;BME280;23794;48.234;8.344;2024-02-16T04:18:23;94112.81;;;6.19;79.21
37972;BME280;23794;48.234;8.344;2024-02-16T04:20:50;94113.94;;;6.18;79.61
37972;BME280;23794;48.234;8.344;2024-02-16T04:23:16;94112.72;;;6.11;79.71
37972;BME280;23794;48.234;8.344;2024-02-16T04:25:43;94112.38;;;6.13;79.89
37972;BME280;23794;48.234;8.344;2024-02-16T04:28:10;94112.00;;;6.14;79.58
37972;BME280;23794;48.234;8.344;2024-02-16T04:30:36;94112.81;;;6.19;79.65
37972;BME280;23794;48.234;8.344;2024-02-16T04:33:04;94115.97;;;6.24;79.54
37972;BME280;23794;48.234;8.344;2024-02-16T04:35:31;94114.09;;;6.32;79.21
37972;BME280;23794;48.234;8.344;2024-02-16T04:37:58;94119.16;;;6.34;79.65
37972;BME280;23794;48.234;8.344;2024-02-16T04:40:24;94120.00;;;6.41;79.05
37972;BME280;23794;48.234;8.344;2024-02-16T04:42:51;94125.47;;;6.45;79.70
37972;BME280;23794;48.234;8.344;2024-02-16T04:45:18;94121.56;;;6.42;80.18
37972;BME280;23794;48.234;8.344;2024-02-16T04:47:45;94123.91;;;6.44;80.05
37972;BME280;23794;48.234;8.344;2024-02-16T04:50:12;94125.13;;;6.50;80.18
37972;BME280;23794;48.234;8.344;2024-02-16T04:52:40;94121.25;;;6.51;80.67
37972;BME280;23794;48.234;8.344;2024-02-16T04:55:08;94127.13;;;6.60;79.96
37972;BME280;23794;48.234;8.344;2024-02-16T04:57:34;94117.38;;;6.56;80.18
37972;BME280;23794;48.234;8.344;2024-02-16T05:00:02;94131.00;;;6.56;80.45
37972;BME280;23794;48.234;8.344;2024-02-16T05:02:29;94123.66;;;6.60;80.54
37972;BME280;23794;48.234;8.344;2024-02-16T05:04:56;94126.41;;;6.64;80.09
37972;BME280;23794;48.234;8.344;2024-02-16T05:07:26;94138.41;;;6.59;80.67
37972;BME280;23794;48.234;8.344;2024-02-16T05:09:52;94136.09;;;6.61;80.21
37972;BME280;23794;48.234;8.344;2024-02-16T05:12:25;94123.25;;;6.58;80.49
37972;BME280;23794;48.234;8.344;2024-02-16T05:14:53;94127.44;;;6.48;80.81
37972;BME280;23794;48.234;8.344;2024-02-16T05:17:26;94134.47;;;6.53;80.46
37972;BME280;23794;48.234;8.344;2024-02-16T05:19:53;94134.09;;;6.54;80.44
37972;BME280;23794;48.234;8.344;2024-02-16T05:22:20;94136.84;;;6.58;80.08
37972;BME280;23794;48.234;8.344;2024-02-16T05:24:48;94140.38;;;6.58;80.70
37972;BME280;23794;48.234;8.344;2024-02-16T05:27:15;94141.53;;;6.57;80.51
37972;BME280;23794;48.234;8.344;2024-02-16T05:29:42;94138.00;;;6.57;81.14
37972;BME280;23794;48.234;8.344;2024-02-16T05:32:09;94122.84;;;6.59;80.49
37972;BME280;23794;48.234;8.344;2024-02-16T05:34:37;94136.47;;;6.63;80.93
37972;BME280;23794;48.234;8.344;2024-02-16T05:37:05;94133.84;;;6.70;80.67
37972;BME280;23794;48.234;8.344;2024-02-16T05:39:33;94134.25;;;6.76;80.58
37972;BME280;23794;48.234;8.344;2024-02-16T05:42:02;94129.59;;;6.73;80.39
37972;BME280;23794;48.234;8.344;2024-02-16T05:44:29;94131.50;;;6.72;80.74
37972;BME280;23794;48.234;8.344;2024-02-16T05:46:56;94135.38;;;6.71;80.79
37972;BME280;23794;48.234;8.344;2024-02-16T05:49:24;94134.66;;;6.74;80.55
37972;BME280;23794;48.234;8.344;2024-02-16T05:51:51;94138.94;;;6.75;79.86
37972;BME280;23794;48.234;8.344;2024-02-16T05:54:36;94143.22;;;6.76;80.21
37972;BME280;23794;48.234;8.344;2024-02-16T05:57:04;94139.28;;;6.70;80.43
37972;BME280;23794;48.234;8.344;2024-02-16T05:59:32;94140.06;;;6.71;80.51
37972;BME280;23794;48.234;8.344;2024-02-16T06:01:59;94143.56;;;6.75;80.11
37972;BME280;23794;48.234;8.344;2024-02-16T06:04:25;94147.09;;;6.75;80.04
37972;BME280;23794;48.234;8.344;2024-02-16T06:06:53;94144.34;;;6.72;80.78
37972;BME280;23794;48.234;8.344;2024-02-16T06:09:21;94142.06;;;6.77;80.47
37972;BME280;23794;48.234;8.344;2024-02-16T06:11:47;94154.13;;;6.76;80.62
37972;BME280;23794;48.234;8.344;2024-02-16T06:14:15;94149.84;;;6.79;80.96
37972;BME280;23794;48.234;8.344;2024-02-16T06:16:46;94149.03;;;6.78;80.48
37972;BME280;23794;48.234;8.344;2024-02-16T06:19:28;94154.91;;;6.81;80.24
37972;BME280;23794;48.234;8.344;2024-02-16T06:21:56;94151.38;;;6.76;81.09
37972;BME280;23794;48.234;8.344;2024-02-16T06:24:23;94149.78;;;6.72;81.53
37972;BME280;23794;48.234;8.344;2024-02-16T06:26:50;94163.03;;;6.73;80.95
37972;BME280;23794;48.234;8.344;2024-02-16T06:29:22;94169.28;;;6.77;81.18
37972;BME280;23794;48.234;8.344;2024-02-16T06:31:49;94157.59;;;6.77;80.95
37972;BME280;23794;48.234;8.344;2024-02-16T06:34:16;94175.16;;;6.83;81.10
37972;BME280;23794;48.234;8.344;2024-02-16T06:36:43;94170.13;;;6.85;80.75
37972;BME280;23794;48.234;8.344;2024-02-16T06:39:11;94173.97;;;6.81;81.30
37972;BME280;23794;48.234;8.344;2024-02-16T06:41:38;94179.03;;;6.86;80.84
37972;BME280;23794;48.234;8.344;2024-02-16T06:44:05;94177.88;;;6.83;81.25
37972;BME280;23794;48.234;8.344;2024-02-16T06:46:32;94181.38;;;6.84;81.38
37972;BME280;23794;48.234;8.344;2024-02-16T06:48:59;94189.16;;;6.82;81.69
37972;BME280;23794;48.234;8.344;2024-02-16T06:51:26;94184.81;;;6.77;81.70
37972;BME280;23794;48.234;8.344;2024-02-16T06:53:55;94185.66;;;6.81;81.53
37972;BME280;23794;48.234;8.344;2024-02-16T06:56:22;94194.63;;;6.85;81.29
37972;BME280;23794;48.234;8.344;2024-02-16T06:58:48;94192.69;;;6.89;81.05
37972;BME280;23794;48.234;8.344;2024-02-16T07:01:16;94197.03;;;6.98;80.96
37972;BME280;23794;48.234;8.344;2024-02-16T07:03:45;94195.53;;;7.04;80.88
37972;BME280;23794;48.234;8.344;2024-02-16T07:06:12;94197.53;;;7.11;80.79
37972;BME280;23794;48.234;8.344;2024-02-16T07:08:41;94189.41;;;7.18;80.56
37972;BME280;23794;48.234;8.344;2024-02-16T07:11:08;94199.13;;;7.19;80.79
37972;BME280;23794;48.234;8.344;2024-02-16T07:13:37;94203.06;;;7.25;80.80
37972;BME280;23794;48.234;8.344;2024-02-16T07:16:04;94211.25;;;7.29;80.80
37972;BME280;23794;48.234;8.344;2024-02-16T07:18:33;94217.09;;;7.27;80.62
37972;BME280;23794;48.234;8.344;2024-02-16T07:21:01;94217.13;;;7.31;80.84
37972;BME280;23794;48.234;8.344;2024-02-16T07:23:28;94216.75;;;7.36;80.91
37972;BME280;23794;48.234;8.344;2024-02-16T07:25:56;94219.16;;;7.45;80.46
37972;BME280;23794;48.234;8.344;2024-02-16T07:28:25;94217.59;;;7.44;80.24
37972;BME280;23794;48.234;8.344;2024-02-16T07:30:52;94217.66;;;7.47;80.21
37972;BME280;23794;48.234;8.344;2024-02-16T07:33:19;94217.66;;;7.51;80.24
37972;BME280;23794;48.234;8.344;2024-02-16T07:35:47;94226.63;;;7.55;80.68
37972;BME280;23794;48.234;8.344;2024-02-16T07:38:14;94227.06;;;7.64;80.37
37972;BME280;23794;48.234;8.344;2024-02-16T07:40:40;94230.22;;;7.70;79.87
37972;BME280;23794;48.234;8.344;2024-02-16T07:43:07;94231.00;;;7.70;79.13
37972;BME280;23794;48.234;8.344;2024-02-16T07:45:35;94225.97;;;7.76;79.02
37972;BME280;23794;48.234;8.344;2024-02-16T07:48:02;94228.34;;;7.85;79.12
37972;BME280;23794;48.234;8.344;2024-02-16T07:50:33;94228.00;;;7.94;78.97
37972;BME280;23794;48.234;8.344;2024-02-16T07:53:00;94229.19;;;8.00;78.95
37972;BME280;23794;48.234;8.344;2024-02-16T07:55:27;94234.28;;;8.05;79.00
37972;BME280;23794;48.234;8.344;2024-02-16T07:57:54;94225.75;;;8.14;79.25
37972;BME280;23794;48.234;8.344;2024-02-16T08:00:21;94231.59;;;8.23;79.74
37972;BME280;23794;48.234;8.344;2024-02-16T08:02:52;94235.94;;;8.35;79.17
37972;BME280;23794;48.234;8.344;2024-02-16T08:05:23;94235.97;;;8.49;78.94
37972;BME280;23794;48.234;8.344;2024-02-16T08:07:52;94241.44;;;8.57;78.78
37972;BME280;23794;48.234;8.344;2024-02-16T08:10:20;94236.78;;;8.61;78.40
37972;BME280;23794;48.234;8.344;2024-02-16T08:12:51;94236.38;;;8.62;78.52
37972;BME280;23794;48.234;8.344;2024-02-16T08:15:21;94239.94;;;8.70;78.34
37972;BME280;23794;48.234;8.344;2024-02-16T08:17:54;94241.88;;;8.77;77.86
37972;BME280;23794;48.234;8.344;2024-02-16T08:20:21;94234.06;;;8.72;77.24
37972;BME280;23794;48.234;8.344;2024-02-16T08:22:54;94238.72;;;8.71;77.32
37972;BME280;23794;48.234;8.344;2024-02-16T08:25:24;94248.50;;;8.68;77.62
37972;BME280;23794;48.234;8.344;2024-02-16T08:27:51;94252.00;;;8.69;77.62
37972;BME280;23794;48.234;8.344;2024-02-16T08:30:23;94253.59;;;8.70;77.79
37972;BME280;23794;48.234;8.344;2024-02-16T08:32:52;94257.84;;;8.78;77.30
37972;BME280;23794;48.234;8.344;2024-02-16T08:35:20;94253.97;;;8.97;77.07
37972;BME280;23794;48.234;8.344;2024-02-16T08:37:47;94252.06;;;9.09;75.54
37972;BME280;23794;48.234;8.344;2024-02-16T08:40:15;94256.34;;;9.21;75.12
37972;BME280;23794;48.234;8.344;2024-02-16T08:42:42;94255.97;;;9.40;74.85
37972;BME280;23794;48.234;8.344;2024-02-16T08:45:09;94253.59;;;9.57;74.13
37972;BME280;23794;48.234;8.344;2024-02-16T08:47:36;94262.16;;;9.77;73.92
37972;BME280;23794;48.234;8.344;2024-02-16T08:50:05;94276.22;;;9.93;72.85
37972;BME280;23794;48.234;8.344;2024-02-16T08:52:34;94254.66;;;10.06;72.35
37972;BME280;23794;48.234;8.344;2024-02-16T08:55:01;94251.50;;;10.19;71.36
37972;BME280;23794;48.234;8.344;2024-02-16T08:57:39;94258.09;;;10.29;70.48
37972;BME280;23794;48.234;8.344;2024-02-16T09:00:07;94259.19;;;10.42;70.86
37972;BME280;23794;48.234;8.344;2024-02-16T09:05:29;94267.69;;;10.66;70.17
37972;BME280;23794;48.234;8.344;2024-02-16T09:07:56;94262.56;;;10.75;70.31
37972;BME280;23794;48.234;8.344;2024-02-16T09:10:23;94271.13;;;10.84;70.61
37972;BME280;23794;48.234;8.344;2024-02-16T09:12:49;94274.63;;;10.85;70.70
37972;BME280;23794;48.234;8.344;2024-02-16T09:15:18;94272.69;;;10.85;70.25
37972;BME280;23794;48.234;8.344;2024-02-16T09:17:45;94271.53;;;10.76;69.88
37972;BME280;23794;48.234;8.344;2024-02-16T09:20:12;94279.75;;;10.76;70.48
37972;BME280;23794;48.234;8.344;2024-02-16T09:22:40;94279.06;;;10.64;70.63
37972;BME280;23794;48.234;8.344;2024-02-16T09:25:13;94292.75;;;10.64;70.92
37972;BME280;23794;48.234;8.344;2024-02-16T09:27:40;94297.41;;;10.71;70.99
37972;BME280;23794;48.234;8.344;2024-02-16T09:30:12;94294.66;;;10.78;70.70
37972;BME280;23794;48.234;8.344;2024-02-16T09:32:40;94303.59;;;10.86;70.33
37972;BME280;23794;48.234;8.344;2024-02-16T09:35:07;94304.38;;;10.83;71.17
37972;BME280;23794;48.234;8.344;2024-02-16T09:37:35;94309.84;;;10.86;70.64
37972;BME280;23794;48.234;8.344;2024-02-16T09:40:02;94308.25;;;10.93;70.35
37972;BME280;23794;48.234;8.344;2024-02-16T09:42:30;94312.16;;;10.95;71.15
37972;BME280;23794;48.234;8.344;2024-02-16T09:44:57;94316.44;;;11.03;71.87
37972;BME280;23794;48.234;8.344;2024-02-16T09:47:30;94317.16;;;11.15;71.17
37972;BME280;23794;48.234;8.344;2024-02-16T09:49:59;94321.41;;;11.23;71.39
37972;BME280;23794;48.234;8.344;2024-02-16T09:52:26;94326.84;;;11.30;71.36
37972;BME280;23794;48.234;8.344;2024-02-16T09:54:53;94332.25;;;11.38;70.85
37972;BME280;23794;48.234;8.344;2024-02-16T09:57:20;94326.75;;;11.41;70.28
37972;BME280;23794;48.234;8.344;2024-02-16T09:59:47;94331.34;;;11.55;70.42
37972;BME280;23794;48.234;8.344;2024-02-16T10:02:14;94331.66;;;11.68;68.63
37972;BME280;23794;48.234;8.344;2024-02-16T10:04:40;94324.81;;;11.87;68.78
37972;BME280;23794;48.234;8.344;2024-02-16T10:07:07;94333.66;;;12.06;66.93
37972;BME280;23794;48.234;8.344;2024-02-16T10:09:39;94329.16;;;12.23;65.17
37972;BME280;23794;48.234;8.344;2024-02-16T10:12:08;94338.13;;;12.30;62.51
37972;BME280;23794;48.234;8.344;2024-02-16T10:14:35;94338.34;;;12.47;63.47
37972;BME280;23794;48.234;8.344;2024-02-16T10:17:03;94339.03;;;12.55;62.53
37972;BME280;23794;48.234;8.344;2024-02-16T10:19:30;94343.09;;;12.77;62.94
37972;BME280;23794;48.234;8.344;2024-02-16T10:22:12;94331.41;;;13.01;60.98
37972;BME280;23794;48.234;8.344;2024-02-16T10:24:40;94337.00;;;13.21;59.89
37972;BME280;23794;48.234;8.344;2024-02-16T10:27:15;94342.34;;;13.59;60.16
37972;BME280;23794;48.234;8.344;2024-02-16T10:29:50;94339.50;;;13.90;57.67
37972;BME280;23794;48.234;8.344;2024-02-16T10:32:20;94339.59;;;14.30;58.46
37972;BME280;23794;48.234;8.344;2024-02-16T10:34:47;94342.41;;;14.71;56.39
37972;BME280;23794;48.234;8.344;2024-02-16T10:37:16;94338.34;;;14.95;55.95
37972;BME280;23794;48.234;8.344;2024-02-16T10:39:44;94336.72;;;15.35;55.79
37972;BME280;23794;48.234;8.344;2024-02-16T10:42:12;94335.47;;;15.72;53.68
37972;BME280;23794;48.234;8.344;2024-02-16T10:44:40;94336.44;;;15.99;52.53
37972;BME280;23794;48.234;8.344;2024-02-16T10:47:09;94335.03;;;15.90;52.73
37972;BME280;23794;48.234;8.344;2024-02-16T10:49:36;94337.91;;;15.87;53.51
37972;BME280;23794;48.234;8.344;2024-02-16T10:52:05;94337.19;;;15.66;52.65
37972;BME280;23794;48.234;8.344;2024-02-16T10:54:33;94334.75;;;15.52;54.05
37972;BME280;23794;48.234;8.344;2024-02-16T10:57:00;94340.28;;;15.52;53.55
37972;BME280;23794;48.234;8.344;2024-02-16T10:59:37;94339.25;;;15.45;52.36
37972;BME280;23794;48.234;8.344;2024-02-16T11:02:07;94346.59;;;15.52;52.48
37972;BME280;23794;48.234;8.344;2024-02-16T11:04:37;94342.19;;;15.55;52.92
37972;BME280;23794;48.234;8.344;2024-02-16T11:07:25;94341.81;;;15.36;52.09
37972;BME280;23794;48.234;8.344;2024-02-16T11:09:52;94343.50;;;15.13;53.08
37972;BME280;23794;48.234;8.344;2024-02-16T11:12:19;94352.19;;;14.72;52.09
37972;BME280;23794;48.234;8.344;2024-02-16T11:14:46;94350.22;;;14.72;54.91
37972;BME280;23794;48.234;8.344;2024-02-16T11:17:22;94348.91;;;14.80;55.36
37972;BME280;23794;48.234;8.344;2024-02-16T11:19:50;94349.81;;;14.94;54.33
37972;BME280;23794;48.234;8.344;2024-02-16T11:22:18;94357.88;;;14.84;55.04
37972;BME280;23794;48.234;8.344;2024-02-16T11:24:50;94353.00;;;14.72;54.58
37972;BME280;23794;48.234;8.344;2024-02-16T11:27:20;94351.34;;;14.55;54.72
37972;BME280;23794;48.234;8.344;2024-02-16T11:29:49;94357.06;;;14.44;55.04
37972;BME280;23794;48.234;8.344;2024-02-16T11:32:18;94350.34;;;14.25;55.02
37972;BME280;23794;48.234;8.344;2024-02-16T11:34:45;94352.88;;;14.35;55.03
37972;BME280;23794;48.234;8.344;2024-02-16T11:37:13;94357.88;;;14.44;54.97
37972;BME280;23794;48.234;8.344;2024-02-16T11:39:41;94357.44;;;14.66;55.17
37972;BME280;23794;48.234;8.344;2024-02-16T11:42:12;94358.72;;;14.61;53.95
37972;BME280;23794;48.234;8.344;2024-02-16T11:44:53;94350.09;;;14.79;53.72
37972;BME280;23794;48.234;8.344;2024-02-16T11:47:23;94359.81;;;14.88;54.18
37972;BME280;23794;48.234;8.344;2024-02-16T11:52:27;94358.59;;;14.89;55.14
37972;BME280;23794;48.234;8.344;2024-02-16T11:54:54;94363.03;;;15.03;55.53
37972;BME280;23794;48.234;8.344;2024-02-16T11:57:24;94358.38;;;14.99;53.06
37972;BME280;23794;48.234;8.344;2024-02-16T11:59:51;94365.53;;;14.97;54.78
37972;BME280;23794;48.234;8.344;2024-02-16T12:02:19;94367.94;;;14.95;53.53
37972;BME280;23794;48.234;8.344;2024-02-16T12:04:47;94364.59;;;15.04;55.16
37972;BME280;23794;48.234;8.344;2024-02-16T12:07:27;94370.75;;;15.11;53.95
37972;BME280;23794;48.234;8.344;2024-02-16T12:09:58;94368.41;;;15.10;53.92
37972;BME280;23794;48.234;8.344;2024-02-16T12:12:26;94363.88;;;15.36;54.62
37972;BME280;23794;48.234;8.344;2024-02-16T12:14:54;94367.88;;;15.35;53.71
37972;BME280;23794;48.234;8.344;2024-02-16T12:17:21;94370.91;;;15.21;54.11
37972;BME280;23794;48.234;8.344;2024-02-16T12:19:51;94376.81;;;15.23;53.61
37972;BME280;23794;48.234;8.344;2024-02-16T12:22:20;94380.06;;;15.18;53.40
37972;BME280;23794;48.234;8.344;2024-02-16T12:24:47;94386.19;;;14.89;53.45
37972;BME280;23794;48.234;8.344;2024-02-16T12:27:14;94378.38;;;14.83;54.54
37972;BME280;23794;48.234;8.344;2024-02-16T12:29:41;94385.06;;;14.86;54.52
37972;BME280;23794;48.234;8.344;2024-02-16T12:32:08;94390.59;;;14.62;55.08
37972;BME280;23794;48.234;8.344;2024-02-16T12:34:36;94387.41;;;14.64;55.73
37972;BME280;23794;48.234;8.344;2024-02-16T12:37:06;94389.44;;;14.40;54.88
37972;BME280;23794;48.234;8.344;2024-02-16T12:39:38;94398.41;;;14.20;55.27
37972;BME280;23794;48.234;8.344;2024-02-16T12:42:06;94391.28;;;14.23;56.19
37972;BME280;23794;48.234;8.344;2024-02-16T12:44:33;94396.09;;;14.18;55.95
37972;BME280;23794;48.234;8.344;2024-02-16T12:46:59;94398.84;;;14.18;56.64
37972;BME280;23794;48.234;8.344;2024-02-16T12:49:26;94388.84;;;14.28;56.28
37972;BME280;23794;48.234;8.344;2024-02-16T12:51:53;94394.03;;;14.46;55.96
37972;BME280;23794;48.234;8.344;2024-02-16T12:54:20;94394.41;;;14.25;55.97
37972;BME280;23794;48.234;8.344;2024-02-16T12:56:49;94393.72;;;14.20;56.44
37972;BME280;23794;48.234;8.344;2024-02-16T12:59:16;94394.59;;;14.14;56.73
37972;BME280;23794;48.234;8.344;2024-02-16T13:01:43;94395.03;;;14.12;57.07
37972;BME280;23794;48.234;8.344;2024-02-16T13:04:10;94394.53;;;13.94;56.69
37972;BME280;23794;48.234;8.344;2024-02-16T13:06:37;94387.19;;;13.87;57.44
37972;BME280;23794;48.234;8.344;2024-02-16T13:09:04;94394.34;;;13.81;57.44
37972;BME280;23794;48.234;8.344;2024-02-16T13:11:32;94393.38;;;13.91;57.80
37972;BME280;23794;48.234;8.344;2024-02-16T13:14:00;94399.84;;;13.81;57.61
37972;BME280;23794;48.234;8.344;2024-02-16T13:16:27;94392.00;;;13.79;57.66